LIMF METAR and TAF | Updated Today

LIMF METAR

Turin Airport

Observation time: 21 min. ago

LIMF 080550Z 35002KT 0700 R36/1400D -SN VV003 00/00 Q1007 RESN

Need help? Read our tutorial on how to read METARs or read the parsed version below.

Turin Airport (LIMF) METAR

  • Weather conditions on Wed, 08 Dec 2021 05:50:00 +0000 (21 min. ago):
  • Present conditions: Light snow
  • Clouds: Vertical visibility at 91 meters
  • Visibility: 700 meters
  • Wind: 350 degrees at 2 knots
  • Temperature: 0 celsius
  • Dew point: 0 celsius
  • Pressure: 1007 millibars
  • Remarks: None


Useful to know...

LIMF TAF

Turin Airport

TAF LIMF 080500Z 0806/0906 VRB05KT 0800 SHSN OVC005 BECMG 0815/0817 4000 BR SCT020
Observation time: 71 min. ago
Need help? Read our tutorial on how to read TAFs or read the parsed version below.

Parsed version of TAF for Turin Airport (LIMF)

  • From 08 December at 06:00 UTC, to day 09 of the month at 06:00 UTC
  • Clouds: Overcast sky at 152 meters
  • Visibility: 800 meters
  • Wind: Variable at 5
  • Other: Showers of snow
  • Expected to arise soon, from 08 December at 15:00 UTC, to day 08 of the month at 17:00 UTC
  • Clouds: Scattered at 610 meters
  • Visibility: 4000 meters
  • Other: Mist